createdAt,value
2023-01-06T00:01:08.891Z,11.37
2023-01-06T00:03:36.022Z,11.32
2023-01-06T00:06:05.579Z,11.37
2023-01-06T00:08:36.082Z,11.34
2023-01-06T00:11:07.599Z,11.32
2023-01-06T00:13:34.439Z,11.29
2023-01-06T00:16:09.475Z,11.27
2023-01-06T00:18:36.449Z,11.26
2023-01-06T00:21:04.340Z,11.24
2023-01-06T00:23:31.700Z,11.26
2023-01-06T00:25:58.313Z,11.16
2023-01-06T00:28:25.317Z,11.14
2023-01-06T00:30:52.999Z,11.27
2023-01-06T00:33:20.104Z,11.25
2023-01-06T00:35:46.796Z,11.23
2023-01-06T00:38:13.520Z,11.24
2023-01-06T00:40:40.193Z,11.23
2023-01-06T00:43:06.842Z,11.25
2023-01-06T00:45:33.548Z,11.29
2023-01-06T00:48:00.217Z,11.24
2023-01-06T00:50:26.930Z,11.31
2023-01-06T00:52:53.995Z,11.32
2023-01-06T00:55:20.753Z,11.27
2023-01-06T00:57:47.457Z,11.31
2023-01-06T01:00:14.417Z,11.30
2023-01-06T01:02:41.209Z,11.27
2023-01-06T01:05:08.359Z,11.32
2023-01-06T01:07:35.837Z,11.41
2023-01-06T01:10:04.039Z,11.34
2023-01-06T01:12:30.725Z,11.34
2023-01-06T01:14:58.083Z,11.38
2023-01-06T01:17:28.962Z,11.34
2023-01-06T01:19:57.799Z,11.18
2023-01-06T01:22:27.041Z,11.29
2023-01-06T01:24:54.424Z,11.33
2023-01-06T01:27:21.145Z,11.28
2023-01-06T01:29:47.841Z,11.26
2023-01-06T01:32:14.590Z,11.49
2023-01-06T01:34:41.168Z,11.46
2023-01-06T01:37:07.803Z,11.26
2023-01-06T01:39:34.390Z,11.29
2023-01-06T01:42:01.014Z,11.50
2023-01-06T01:44:48.692Z,11.48
2023-01-06T01:47:37.515Z,11.41
2023-01-06T01:50:38.004Z,11.33
2023-01-06T01:53:11.336Z,11.29
2023-01-06T01:55:39.543Z,11.32
2023-01-06T01:58:12.366Z,11.24
2023-01-06T02:00:40.875Z,11.27
2023-01-06T02:03:07.672Z,11.27
2023-01-06T02:05:40.210Z,11.25
2023-01-06T02:08:21.498Z,11.36
2023-01-06T02:10:48.174Z,11.32
2023-01-06T02:13:14.883Z,11.27
2023-01-06T02:16:19.553Z,11.43
2023-01-06T02:18:59.588Z,11.43
2023-01-06T02:21:53.885Z,11.58
2023-01-06T02:24:48.482Z,11.57
2023-01-06T02:27:52.067Z,11.45
2023-01-06T02:31:00.343Z,11.35
2023-01-06T02:34:05.267Z,11.43
2023-01-06T02:36:45.766Z,11.33
2023-01-06T02:39:23.524Z,11.28
2023-01-06T02:42:01.486Z,11.32
2023-01-06T02:45:14.496Z,11.25
2023-01-06T02:48:15.621Z,11.27
2023-01-06T02:50:50.815Z,11.29
2023-01-06T02:53:25.458Z,11.31
2023-01-06T02:55:54.961Z,11.32
2023-01-06T02:58:28.746Z,11.33
2023-01-06T03:01:09.480Z,11.35
2023-01-06T03:03:39.962Z,11.16
2023-01-06T03:06:15.036Z,11.28
2023-01-06T03:08:45.228Z,11.28
2023-01-06T03:11:12.941Z,11.32
2023-01-06T03:13:46.860Z,11.31
2023-01-06T03:16:14.771Z,11.31
2023-01-06T03:18:43.476Z,11.28
2023-01-06T03:21:21.351Z,11.26
2023-01-06T03:23:48.451Z,11.20
2023-01-06T03:26:15.489Z,11.11
2023-01-06T03:28:44.261Z,11.09
2023-01-06T03:31:15.396Z,10.96
2023-01-06T03:34:10.118Z,10.96
2023-01-06T03:36:46.039Z,10.93
2023-01-06T03:39:18.926Z,11.03
2023-01-06T03:42:35.243Z,11.19
2023-01-06T03:45:20.769Z,11.34
2023-01-06T03:47:53.182Z,11.18
2023-01-06T03:50:28.748Z,11.24
2023-01-06T03:53:23.363Z,11.23
2023-01-06T03:56:03.978Z,11.29
2023-01-06T03:58:31.429Z,11.10
2023-01-06T04:00:59.177Z,11.35
2023-01-06T04:03:26.327Z,11.39
2023-01-06T04:05:54.507Z,11.10
2023-01-06T04:08:21.591Z,11.17
2023-01-06T04:10:49.168Z,11.23
2023-01-06T04:13:16.516Z,11.24
2023-01-06T04:15:43.315Z,11.34
2023-01-06T04:18:10.182Z,11.34
2023-01-06T04:20:39.659Z,11.22
2023-01-06T04:23:20.028Z,11.22
2023-01-06T04:25:46.927Z,11.17
2023-01-06T04:28:23.579Z,11.20
2023-01-06T04:30:51.993Z,11.33
2023-01-06T04:33:18.772Z,11.35
2023-01-06T04:35:48.095Z,11.28
2023-01-06T04:38:19.377Z,11.24
2023-01-06T04:40:46.025Z,11.25
2023-01-06T04:43:16.101Z,11.52
2023-01-06T04:45:43.827Z,11.48
2023-01-06T04:48:11.748Z,11.43
2023-01-06T04:50:38.874Z,11.42
2023-01-06T04:53:06.628Z,11.28
2023-01-06T04:55:33.884Z,11.20
2023-01-06T04:58:00.701Z,11.26
2023-01-06T05:00:27.482Z,11.23
2023-01-06T05:02:54.208Z,11.45
2023-01-06T05:05:20.816Z,11.42
2023-01-06T05:07:47.483Z,11.45
2023-01-06T05:10:14.115Z,11.34
2023-01-06T05:12:41.048Z,11.31
2023-01-06T05:15:11.515Z,11.29
2023-01-06T05:17:38.313Z,11.20
2023-01-06T05:20:05.589Z,11.26
2023-01-06T05:22:32.173Z,11.14
2023-01-06T05:24:58.850Z,11.21
2023-01-06T05:27:25.699Z,11.23
2023-01-06T05:29:52.437Z,11.09
2023-01-06T05:32:19.016Z,11.00
2023-01-06T05:34:45.767Z,10.94
2023-01-06T05:37:12.448Z,10.95
2023-01-06T05:39:39.116Z,11.02
2023-01-06T05:42:05.740Z,10.92
2023-01-06T05:44:32.339Z,11.05
2023-01-06T05:46:58.934Z,10.89
2023-01-06T05:49:25.803Z,10.90
2023-01-06T05:51:52.428Z,10.97
2023-01-06T05:54:19.061Z,11.23
2023-01-06T05:56:45.656Z,11.27
2023-01-06T05:59:12.363Z,11.20
2023-01-06T06:01:39.102Z,11.04
2023-01-06T06:04:05.962Z,11.06
2023-01-06T06:06:32.908Z,11.02
2023-01-06T06:08:59.637Z,11.15
2023-01-06T06:11:26.436Z,10.97
2023-01-06T06:13:55.112Z,10.93
2023-01-06T06:16:24.012Z,11.02
2023-01-06T06:18:52.974Z,11.23
2023-01-06T06:21:22.418Z,11.15
2023-01-06T06:23:49.522Z,11.10
2023-01-06T06:26:16.232Z,11.27
2023-01-06T06:28:43.072Z,11.19
2023-01-06T06:31:13.380Z,11.27
2023-01-06T06:33:40.711Z,11.15
2023-01-06T06:36:12.242Z,11.07
2023-01-06T06:38:39.257Z,11.10
2023-01-06T06:41:05.959Z,11.30
2023-01-06T06:43:33.659Z,11.23
2023-01-06T06:46:00.623Z,11.26
2023-01-06T06:48:30.079Z,11.18
2023-01-06T06:50:58.340Z,11.14
2023-01-06T06:53:25.390Z,11.08
2023-01-06T06:55:52.521Z,11.06
2023-01-06T06:58:19.134Z,10.95
2023-01-06T07:00:45.783Z,10.87
2023-01-06T07:03:12.508Z,10.84
2023-01-06T07:05:39.208Z,10.78
2023-01-06T07:08:05.855Z,10.63
2023-01-06T07:10:32.528Z,10.60
2023-01-06T07:12:59.183Z,10.56
2023-01-06T07:15:25.799Z,10.48
2023-01-06T07:17:52.482Z,10.53
2023-01-06T07:20:19.128Z,10.56
2023-01-06T07:22:45.769Z,10.64
2023-01-06T07:25:12.677Z,10.62
2023-01-06T07:27:39.297Z,10.62
2023-01-06T07:30:06.632Z,10.59
2023-01-06T07:32:33.258Z,10.66
2023-01-06T07:34:59.940Z,10.63
2023-01-06T07:37:26.573Z,10.67
2023-01-06T07:39:53.286Z,10.66
2023-01-06T07:42:19.954Z,10.69
2023-01-06T07:44:46.713Z,10.79
2023-01-06T07:47:14.159Z,10.74
2023-01-06T07:49:40.851Z,10.76
2023-01-06T07:52:07.569Z,10.87
2023-01-06T07:54:34.431Z,10.88
2023-01-06T07:57:01.089Z,10.81
2023-01-06T07:59:27.703Z,10.76
2023-01-06T08:01:54.401Z,10.96
2023-01-06T08:04:21.139Z,10.94
2023-01-06T08:06:47.819Z,10.91
2023-01-06T08:09:14.459Z,10.97
2023-01-06T08:11:41.021Z,10.82
2023-01-06T08:14:07.736Z,10.85
2023-01-06T08:16:34.299Z,10.92
2023-01-06T08:19:00.843Z,10.94
2023-01-06T08:21:27.477Z,10.93
2023-01-06T08:23:54.086Z,10.96
2023-01-06T08:26:20.754Z,11.00
2023-01-06T08:28:47.342Z,11.01
2023-01-06T08:31:16.452Z,11.05
2023-01-06T08:33:43.667Z,11.08
2023-01-06T08:36:14.285Z,11.03
2023-01-06T08:38:41.734Z,11.00
2023-01-06T08:41:09.022Z,11.08
2023-01-06T08:43:36.403Z,11.08
2023-01-06T08:46:06.280Z,11.06
2023-01-06T08:48:34.283Z,11.10
2023-01-06T08:51:12.446Z,11.12
2023-01-06T08:53:39.609Z,11.11
2023-01-06T08:56:16.122Z,11.17
2023-01-06T08:58:43.303Z,11.18
2023-01-06T09:01:21.231Z,11.24
2023-01-06T09:03:48.533Z,11.22
2023-01-06T09:06:17.118Z,11.21
2023-01-06T09:08:43.746Z,11.23
2023-01-06T09:11:12.066Z,11.17
2023-01-06T09:13:39.116Z,11.37
2023-01-06T09:16:07.362Z,11.21
2023-01-06T09:18:35.499Z,11.26
2023-01-06T09:21:03.283Z,11.39
2023-01-06T09:23:30.098Z,11.42
2023-01-06T09:25:58.069Z,11.39
2023-01-06T09:28:25.882Z,11.31
2023-01-06T09:30:52.765Z,11.27
2023-01-06T09:33:19.527Z,11.24
2023-01-06T09:35:46.819Z,11.24
2023-01-06T09:38:14.932Z,11.28
2023-01-06T09:40:58.123Z,11.29
2023-01-06T09:43:43.874Z,11.24
2023-01-06T09:46:14.952Z,11.28
2023-01-06T09:49:09.980Z,11.37
2023-01-06T09:51:37.883Z,11.38
2023-01-06T09:54:19.260Z,11.58
2023-01-06T09:56:53.711Z,11.60
2023-01-06T09:59:34.043Z,11.65
2023-01-06T10:02:03.034Z,11.60
2023-01-06T10:04:30.939Z,11.68
2023-01-06T10:07:16.090Z,11.62
2023-01-06T10:09:57.324Z,11.76
2023-01-06T10:12:45.777Z,11.73
2023-01-06T10:15:38.020Z,11.60
2023-01-06T10:18:17.458Z,11.46
2023-01-06T10:21:17.713Z,11.51
2023-01-06T10:24:01.073Z,11.43
2023-01-06T10:26:32.984Z,11.39
2023-01-06T10:29:14.920Z,11.39
2023-01-06T10:31:44.966Z,11.45
2023-01-06T10:34:25.930Z,11.42
2023-01-06T10:37:02.657Z,11.42
2023-01-06T10:39:31.762Z,11.48
2023-01-06T10:42:24.565Z,11.51
2023-01-06T10:44:51.227Z,11.43
2023-01-06T10:47:25.797Z,11.47
2023-01-06T10:49:52.516Z,11.48
2023-01-06T10:52:20.867Z,11.54
2023-01-06T10:54:49.337Z,11.47
2023-01-06T10:57:22.676Z,11.47
2023-01-06T11:00:14.161Z,11.53
2023-01-06T11:02:49.533Z,11.48
2023-01-06T11:05:20.103Z,11.41
2023-01-06T11:08:07.832Z,11.50
2023-01-06T11:10:42.847Z,11.42
2023-01-06T11:13:23.083Z,11.51
2023-01-06T11:15:50.137Z,11.49
2023-01-06T11:18:21.787Z,11.53
2023-01-06T11:21:12.827Z,11.51
2023-01-06T11:23:42.010Z,11.54
2023-01-06T11:26:11.631Z,11.58
2023-01-06T11:28:39.766Z,11.62
2023-01-06T11:31:20.009Z,11.67
2023-01-06T11:33:53.658Z,11.70
2023-01-06T11:36:23.597Z,11.75
2023-01-06T11:38:56.166Z,11.71
2023-01-06T11:41:31.043Z,11.65
2023-01-06T11:44:17.284Z,11.59
2023-01-06T11:46:55.494Z,11.41
2023-01-06T11:49:31.028Z,11.46
2023-01-06T11:52:07.293Z,11.47
2023-01-06T11:54:33.881Z,11.42
2023-01-06T11:57:17.391Z,11.43
2023-01-06T11:59:54.317Z,11.56
2023-01-06T12:02:32.664Z,11.58
2023-01-06T12:05:05.766Z,11.59
2023-01-06T12:07:44.123Z,11.63
2023-01-06T12:10:17.530Z,11.69
2023-01-06T12:12:44.766Z,11.69
2023-01-06T12:15:14.580Z,11.68
2023-01-06T12:17:52.400Z,11.65
2023-01-06T12:20:38.457Z,11.83
2023-01-06T12:23:10.783Z,11.93
2023-01-06T12:25:43.200Z,11.93
2023-01-06T12:28:18.182Z,11.94
2023-01-06T12:31:15.904Z,11.95
2023-01-06T12:34:10.108Z,11.82
2023-01-06T12:36:55.218Z,11.82
2023-01-06T12:39:42.805Z,11.67
2023-01-06T12:42:27.464Z,11.66
2023-01-06T12:45:03.362Z,11.69
2023-01-06T12:47:43.076Z,11.57
2023-01-06T12:50:40.335Z,11.54
2023-01-06T12:53:20.223Z,11.45
2023-01-06T12:56:06.981Z,11.51
2023-01-06T12:59:25.406Z,11.44
2023-01-06T13:02:29.951Z,11.56
2023-01-06T13:05:33.257Z,11.55
2023-01-06T13:08:16.145Z,11.52
2023-01-06T13:10:58.020Z,11.46
2023-01-06T13:13:30.479Z,11.51
2023-01-06T13:16:05.170Z,11.46
2023-01-06T13:18:41.203Z,11.52
2023-01-06T13:21:11.280Z,11.60
2023-01-06T13:23:51.858Z,11.59
2023-01-06T13:26:40.531Z,11.64
2023-01-06T13:29:25.084Z,11.66
2023-01-06T13:32:04.418Z,11.56
2023-01-06T13:34:45.264Z,11.47
2023-01-06T13:37:34.961Z,11.50
2023-01-06T13:40:19.761Z,11.58
2023-01-06T13:42:58.092Z,11.59
2023-01-06T13:45:34.092Z,11.56
2023-01-06T13:48:08.371Z,11.56
2023-01-06T13:50:38.031Z,11.53
2023-01-06T13:53:06.735Z,11.60
2023-01-06T13:55:39.042Z,11.62
2023-01-06T13:58:26.646Z,11.67
2023-01-06T14:01:08.686Z,11.78
2023-01-06T14:03:37.725Z,11.84
2023-01-06T14:06:05.233Z,11.74
2023-01-06T14:08:36.840Z,11.80
2023-01-06T14:11:19.177Z,11.70
2023-01-06T14:13:52.800Z,11.63
2023-01-06T14:16:20.424Z,11.58
2023-01-06T14:18:52.203Z,11.54
2023-01-06T14:21:28.365Z,11.53
2023-01-06T14:24:18.377Z,11.51
2023-01-06T14:26:50.832Z,11.57
2023-01-06T14:29:39.555Z,11.48
2023-01-06T14:32:07.254Z,11.47
2023-01-06T14:34:36.803Z,11.41
2023-01-06T14:37:05.563Z,11.46
2023-01-06T14:39:34.995Z,11.52
2023-01-06T14:42:06.750Z,11.59
2023-01-06T14:44:49.183Z,11.59
2023-01-06T14:47:49.535Z,11.52
2023-01-06T14:50:22.274Z,11.58
2023-01-06T14:53:18.172Z,11.52
2023-01-06T14:55:48.170Z,11.54
2023-01-06T14:58:32.914Z,11.45
2023-01-06T15:01:03.885Z,11.41
2023-01-06T15:03:31.951Z,11.40
2023-01-06T15:06:13.628Z,11.28
2023-01-06T15:08:40.673Z,11.25
2023-01-06T15:11:20.577Z,11.37
2023-01-06T15:13:47.480Z,11.28
2023-01-06T15:16:34.590Z,11.36
2023-01-06T15:19:02.717Z,11.50
2023-01-06T15:21:41.777Z,11.45
2023-01-06T15:24:27.905Z,11.34
2023-01-06T15:27:04.473Z,11.39
2023-01-06T15:29:31.339Z,11.57
2023-01-06T15:31:58.832Z,11.37
2023-01-06T15:34:33.614Z,11.38
2023-01-06T15:37:04.575Z,11.47
2023-01-06T15:39:34.892Z,11.43
2023-01-06T15:42:06.080Z,11.52
2023-01-06T15:44:35.709Z,11.42
2023-01-06T15:47:28.512Z,11.46
2023-01-06T15:50:02.145Z,11.05
2023-01-06T15:52:37.384Z,11.07
2023-01-06T15:55:18.237Z,11.18
2023-01-06T15:57:53.728Z,10.96
2023-01-06T16:00:28.361Z,11.33
2023-01-06T16:02:55.813Z,11.38
2023-01-06T16:05:43.248Z,11.28
2023-01-06T16:08:25.055Z,11.06
2023-01-06T16:11:17.596Z,11.21
2023-01-06T16:13:56.219Z,11.07
2023-01-06T16:16:26.357Z,11.11
2023-01-06T16:18:54.994Z,11.09
2023-01-06T16:21:26.465Z,11.08
2023-01-06T16:24:04.932Z,10.99
2023-01-06T16:26:36.737Z,11.08
2023-01-06T16:29:24.977Z,11.07
2023-01-06T16:31:51.635Z,11.05
2023-01-06T16:34:21.428Z,10.94
2023-01-06T16:36:53.693Z,10.96
2023-01-06T16:39:20.402Z,11.03
2023-01-06T16:41:58.920Z,11.02
2023-01-06T16:44:26.798Z,10.95
2023-01-06T16:46:53.512Z,11.03
2023-01-06T16:49:21.655Z,11.10
2023-01-06T16:51:48.838Z,11.12
2023-01-06T16:54:19.767Z,11.12
2023-01-06T16:56:46.995Z,11.15
2023-01-06T16:59:19.129Z,11.17
2023-01-06T17:01:47.749Z,11.22
2023-01-06T17:04:15.467Z,11.16
2023-01-06T17:06:43.963Z,11.13
2023-01-06T17:09:13.750Z,11.16
2023-01-06T17:11:40.512Z,11.11
2023-01-06T17:14:15.317Z,11.10
2023-01-06T17:16:45.021Z,11.20
2023-01-06T17:19:26.714Z,11.26
2023-01-06T17:22:04.523Z,11.19
2023-01-06T17:24:31.418Z,11.20
2023-01-06T17:27:20.533Z,11.22
2023-01-06T17:29:47.821Z,11.33
2023-01-06T17:32:19.622Z,11.30
2023-01-06T17:34:50.068Z,11.34
2023-01-06T17:37:25.916Z,11.27
2023-01-06T17:39:53.120Z,11.43
2023-01-06T17:42:40.164Z,11.30
2023-01-06T17:45:49.189Z,11.50
2023-01-06T17:48:36.441Z,11.67
2023-01-06T17:51:04.545Z,11.61
2023-01-06T17:53:55.469Z,11.48
2023-01-06T17:56:26.117Z,11.38
2023-01-06T17:58:52.891Z,11.15
2023-01-06T18:01:23.759Z,11.54
2023-01-06T18:03:52.236Z,11.52
2023-01-06T18:06:22.968Z,11.42
2023-01-06T18:09:07.883Z,11.39
2023-01-06T18:11:37.270Z,11.22
2023-01-06T18:14:36.377Z,11.33
2023-01-06T18:17:19.911Z,11.34
2023-01-06T18:19:46.832Z,11.25
2023-01-06T18:22:19.814Z,11.20
2023-01-06T18:24:48.392Z,11.24
2023-01-06T18:27:27.175Z,11.26
2023-01-06T18:30:00.118Z,11.28
2023-01-06T18:32:32.115Z,11.23
2023-01-06T18:35:05.141Z,11.22
2023-01-06T18:37:35.945Z,11.22
2023-01-06T18:40:07.163Z,11.17
2023-01-06T18:42:45.100Z,11.11
2023-01-06T18:45:11.646Z,10.98
2023-01-06T18:47:41.107Z,10.96
2023-01-06T18:50:28.308Z,11.19
2023-01-06T18:53:06.917Z,11.16
2023-01-06T18:55:42.806Z,11.17
2023-01-06T18:58:36.326Z,11.19
2023-01-06T19:01:29.528Z,11.13
2023-01-06T19:04:02.894Z,11.08
2023-01-06T19:06:42.203Z,11.09
2023-01-06T19:09:18.777Z,11.32
2023-01-06T19:11:47.297Z,11.27
2023-01-06T19:14:18.383Z,11.08
2023-01-06T19:16:51.891Z,11.20
2023-01-06T19:19:41.576Z,11.27
2023-01-06T19:22:14.649Z,11.38
2023-01-06T19:24:48.361Z,11.21
2023-01-06T19:27:31.782Z,11.30
2023-01-06T19:30:28.770Z,11.48
2023-01-06T19:33:23.915Z,11.40
2023-01-06T19:36:06.605Z,11.30
2023-01-06T19:38:41.778Z,11.21
2023-01-06T19:41:26.909Z,11.15
2023-01-06T19:44:15.068Z,11.15
2023-01-06T19:46:44.562Z,10.93
2023-01-06T19:49:11.267Z,11.08
2023-01-06T19:51:38.065Z,11.25
2023-01-06T19:54:35.418Z,11.20
2023-01-06T19:57:21.699Z,11.09
2023-01-06T19:59:48.837Z,11.20
2023-01-06T20:02:29.161Z,11.16
2023-01-06T20:04:57.229Z,11.02
2023-01-06T20:07:28.231Z,11.08
2023-01-06T20:09:56.054Z,11.18
2023-01-06T20:12:23.095Z,11.05
2023-01-06T20:14:49.871Z,11.20
2023-01-06T20:17:16.757Z,11.14
2023-01-06T20:19:43.440Z,11.23
2023-01-06T20:22:10.101Z,11.30
2023-01-06T20:24:36.903Z,11.20
2023-01-06T20:27:03.868Z,11.07
2023-01-06T20:29:32.935Z,11.11
2023-01-06T20:32:00.009Z,10.95
2023-01-06T20:34:26.737Z,11.06
2023-01-06T20:36:53.543Z,11.07
2023-01-06T20:39:20.586Z,11.07
2023-01-06T20:41:47.324Z,11.11
2023-01-06T20:44:14.184Z,11.10
2023-01-06T20:46:40.886Z,11.23
2023-01-06T20:49:07.547Z,11.16
2023-01-06T20:51:34.179Z,11.01
2023-01-06T20:54:00.831Z,10.94
2023-01-06T20:56:27.500Z,10.93
2023-01-06T20:58:57.155Z,10.98
2023-01-06T21:01:23.867Z,11.18
2023-01-06T21:03:51.815Z,11.12
2023-01-06T21:06:18.600Z,11.16
2023-01-06T21:08:45.195Z,11.03
2023-01-06T21:11:11.961Z,11.27
2023-01-06T21:13:38.660Z,11.17
2023-01-06T21:16:06.124Z,11.14
2023-01-06T21:18:35.490Z,11.10
2023-01-06T21:21:02.187Z,11.12
2023-01-06T21:23:28.869Z,11.12
2023-01-06T21:25:55.523Z,11.09
2023-01-06T21:28:22.184Z,11.04
2023-01-06T21:30:48.879Z,11.04
2023-01-06T21:33:16.625Z,10.94
2023-01-06T21:35:43.296Z,11.09
2023-01-06T21:38:10.001Z,10.82
2023-01-06T21:40:37.070Z,10.90
2023-01-06T21:43:09.789Z,10.98
2023-01-06T21:45:38.478Z,11.17
2023-01-06T21:48:06.878Z,11.06
2023-01-06T21:50:37.324Z,11.13
2023-01-06T21:53:04.491Z,10.82
2023-01-06T21:55:31.245Z,10.98
2023-01-06T21:58:04.532Z,10.91
2023-01-06T22:00:36.924Z,11.06
2023-01-06T22:03:05.028Z,11.03
2023-01-06T22:05:31.818Z,10.99
2023-01-06T22:07:58.564Z,10.96
2023-01-06T22:10:28.355Z,11.09
2023-01-06T22:12:56.793Z,11.09
2023-01-06T22:15:23.990Z,10.99
2023-01-06T22:17:55.942Z,10.95
2023-01-06T22:20:22.883Z,10.85
2023-01-06T22:22:53.217Z,10.98
2023-01-06T22:25:29.574Z,10.96
2023-01-06T22:27:59.458Z,10.92
2023-01-06T22:30:27.575Z,11.06
2023-01-06T22:32:54.532Z,11.03
2023-01-06T22:35:25.020Z,10.87
2023-01-06T22:37:52.010Z,10.92
2023-01-06T22:40:19.122Z,10.72
2023-01-06T22:42:46.477Z,10.83
2023-01-06T22:45:13.882Z,10.97
2023-01-06T22:47:41.168Z,10.83
2023-01-06T22:50:08.908Z,10.99
2023-01-06T22:52:36.121Z,10.99
2023-01-06T22:55:04.018Z,11.03
2023-01-06T22:57:30.852Z,10.93
2023-01-06T23:00:07.655Z,10.85
2023-01-06T23:02:35.234Z,10.62
2023-01-06T23:05:02.807Z,10.66
2023-01-06T23:07:30.712Z,10.92
2023-01-06T23:09:57.350Z,10.95
2023-01-06T23:12:24.391Z,10.88
2023-01-06T23:14:51.063Z,10.68
2023-01-06T23:17:17.735Z,10.83
2023-01-06T23:19:44.571Z,10.88
2023-01-06T23:22:15.054Z,10.85
2023-01-06T23:24:41.674Z,10.94
2023-01-06T23:27:08.627Z,10.95
2023-01-06T23:29:35.336Z,10.92
2023-01-06T23:32:04.378Z,10.80
2023-01-06T23:34:49.320Z,10.84
2023-01-06T23:37:16.349Z,10.77
2023-01-06T23:39:43.410Z,10.85
2023-01-06T23:42:10.181Z,10.84
2023-01-06T23:44:36.834Z,10.94
2023-01-06T23:47:03.541Z,10.93
2023-01-06T23:49:30.213Z,11.13
2023-01-06T23:51:57.026Z,11.14
2023-01-06T23:54:23.649Z,11.04
2023-01-06T23:56:50.351Z,11.03
2023-01-06T23:59:17.251Z,10.86
